createdAt,value
2019-01-03T00:01:56.969Z,94715.31
2019-01-03T00:04:50.748Z,94714.85
2019-01-03T00:07:50.302Z,94717.28
2019-01-03T00:10:43.442Z,94725.50
2019-01-03T00:13:23.080Z,94728.48
2019-01-03T00:16:13.217Z,94731.29
2019-01-03T00:19:21.716Z,94730.75
2019-01-03T00:22:10.623Z,94735.66
2019-01-03T00:25:09.898Z,94736.77
2019-01-03T00:27:52.462Z,94730.64
2019-01-03T00:30:41.447Z,94733.31
2019-01-03T00:33:34.842Z,94733.02
2019-01-03T00:36:15.198Z,94732.84
2019-01-03T00:39:00.419Z,94740.44
2019-01-03T00:41:51.274Z,94741.61
2019-01-03T00:44:41.482Z,94737.81
2019-01-03T00:47:36.182Z,94741.80
2019-01-03T00:50:38.276Z,94741.19
2019-01-03T00:53:29.414Z,94739.64
2019-01-03T00:56:25.006Z,94741.73
2019-01-03T00:59:24.661Z,94742.37
2019-01-03T01:02:13.420Z,94738.86
2019-01-03T01:05:17.207Z,94736.44
2019-01-03T01:08:25.200Z,94736.61
2019-01-03T01:11:15.180Z,94733.58
2019-01-03T01:14:03.845Z,94729.08
2019-01-03T01:16:48.584Z,94729.24
2019-01-03T01:19:38.780Z,94727.63
2019-01-03T01:22:27.792Z,94722.96
2019-01-03T01:25:15.550Z,94720.27
2019-01-03T01:28:04.508Z,94716.82
2019-01-03T01:30:54.839Z,94722.01
2019-01-03T01:33:43.583Z,94718.05
2019-01-03T01:36:28.123Z,94714.50
2019-01-03T01:39:27.825Z,94711.41
2019-01-03T01:42:16.954Z,94716.14
2019-01-03T01:45:07.097Z,94716.00
2019-01-03T01:48:09.357Z,94714.09
2019-01-03T01:50:58.551Z,94717.06
2019-01-03T01:53:48.508Z,94709.42
2019-01-03T01:56:37.287Z,94712.64
2019-01-03T01:59:26.102Z,94705.68
2019-01-03T02:02:19.194Z,94703.25
2019-01-03T02:05:09.288Z,94701.42
2019-01-03T02:08:17.947Z,94697.08
2019-01-03T02:11:06.640Z,94690.47
2019-01-03T02:14:00.127Z,94694.84
2019-01-03T02:16:53.491Z,94688.89
2019-01-03T02:20:00.768Z,94686.92
2019-01-03T02:22:42.059Z,94691.54
2019-01-03T02:25:28.526Z,94687.03
2019-01-03T02:28:21.561Z,94680.51
2019-01-03T02:31:10.650Z,94686.92
2019-01-03T02:34:03.633Z,94683.63
2019-01-03T02:36:48.302Z,94688.73
2019-01-03T02:39:47.800Z,94688.43
2019-01-03T02:42:41.194Z,94686.92
2019-01-03T02:45:30.155Z,94686.27
2019-01-03T02:48:17.033Z,94685.17
2019-01-03T02:51:05.720Z,94683.20
2019-01-03T02:53:54.317Z,94680.86
2019-01-03T02:56:47.429Z,94682.44
2019-01-03T02:59:37.614Z,94681.78
2019-01-03T03:02:27.874Z,94678.12
2019-01-03T03:05:16.551Z,94684.66
2019-01-03T03:08:05.136Z,94684.58
2019-01-03T03:11:10.519Z,94689.60
2019-01-03T03:14:01.012Z,94693.80
2019-01-03T03:16:51.379Z,94696.89
2019-01-03T03:19:40.032Z,94698.98
2019-01-03T03:22:30.511Z,94695.90
2019-01-03T03:25:26.611Z,94683.78
2019-01-03T03:28:16.163Z,94699.06
2019-01-03T03:31:05.097Z,94699.56
2019-01-03T03:34:10.263Z,94698.06
2019-01-03T03:37:03.431Z,94692.34
2019-01-03T03:39:57.926Z,94701.90
2019-01-03T03:42:55.148Z,94698.05
2019-01-03T03:45:44.029Z,94697.00
2019-01-03T03:48:33.853Z,94698.33
2019-01-03T03:51:27.683Z,94707.30
2019-01-03T03:54:29.937Z,94712.97
2019-01-03T03:57:26.157Z,94706.63
2019-01-03T04:00:22.130Z,94718.02
2019-01-03T04:03:12.160Z,94718.78
2019-01-03T04:06:08.127Z,94716.41
2019-01-03T04:08:54.625Z,94727.00
2019-01-03T04:11:43.647Z,94728.36
2019-01-03T04:14:32.054Z,94731.38
2019-01-03T04:17:22.236Z,94728.75
2019-01-03T04:20:12.580Z,94731.27
2019-01-03T04:23:18.273Z,94735.69
2019-01-03T04:26:08.687Z,94738.30
2019-01-03T04:28:56.993Z,94727.89
2019-01-03T04:31:49.956Z,94735.91
2019-01-03T04:34:48.955Z,94728.22
2019-01-03T04:37:57.526Z,94733.34
2019-01-03T04:40:46.458Z,94735.05
2019-01-03T04:43:45.694Z,94738.61
2019-01-03T04:46:36.619Z,94737.50
2019-01-03T04:49:35.680Z,94730.73
2019-01-03T04:52:40.942Z,94736.79
2019-01-03T04:55:31.054Z,94737.85
2019-01-03T04:58:27.206Z,94745.61
2019-01-03T05:01:55.395Z,94747.14
2019-01-03T05:04:48.721Z,94748.25
2019-01-03T05:07:41.338Z,94750.92
2019-01-03T05:10:31.509Z,94749.81
2019-01-03T05:13:19.140Z,94759.90
2019-01-03T05:16:18.633Z,94762.51
2019-01-03T05:19:07.806Z,94765.28
2019-01-03T05:21:56.659Z,94763.00
2019-01-03T05:24:55.908Z,94768.70
2019-01-03T05:27:39.798Z,94774.19
2019-01-03T05:30:28.437Z,94775.31
2019-01-03T05:33:21.618Z,94775.85
2019-01-03T05:36:14.724Z,94782.19
2019-01-03T05:39:08.028Z,94776.65
2019-01-03T05:42:01.292Z,94781.13
2019-01-03T05:44:47.870Z,94782.13
2019-01-03T05:47:47.417Z,94777.98
2019-01-03T05:50:36.407Z,94779.27
2019-01-03T05:53:26.599Z,94782.11
2019-01-03T05:56:15.071Z,94789.88
2019-01-03T05:59:11.305Z,94791.55
2019-01-03T06:02:13.357Z,94788.67
2019-01-03T06:05:12.464Z,94796.36
2019-01-03T06:08:17.356Z,94799.23
2019-01-03T06:10:57.491Z,94801.33
2019-01-03T06:14:02.394Z,94800.42
2019-01-03T06:16:52.157Z,94800.97
2019-01-03T06:19:57.321Z,94796.59
2019-01-03T06:22:46.187Z,94806.61
2019-01-03T06:25:37.367Z,94809.40
2019-01-03T06:28:27.801Z,94809.31
2019-01-03T06:31:23.830Z,94812.25
2019-01-03T06:34:12.735Z,94814.07
2019-01-03T06:37:03.009Z,94818.45
2019-01-03T06:39:56.367Z,94815.52
2019-01-03T06:42:45.080Z,94818.38
2019-01-03T06:45:34.046Z,94826.62
2019-01-03T06:48:23.040Z,94825.51
2019-01-03T06:51:15.995Z,94831.19
2019-01-03T06:54:09.038Z,94833.20
2019-01-03T06:57:17.723Z,94843.81
2019-01-03T07:00:07.005Z,94849.03
2019-01-03T07:02:57.256Z,94841.80
2019-01-03T07:05:50.505Z,94843.17
2019-01-03T07:08:43.681Z,94847.39
2019-01-03T07:11:40.003Z,94857.00
2019-01-03T07:14:28.918Z,94860.75
2019-01-03T07:17:19.109Z,94866.52
2019-01-03T07:20:12.235Z,94867.44
2019-01-03T07:23:08.539Z,94874.77
2019-01-03T07:26:01.368Z,94880.05
2019-01-03T07:28:50.412Z,94877.22
2019-01-03T07:31:43.301Z,94883.17
2019-01-03T07:34:32.547Z,94880.80
2019-01-03T07:37:25.419Z,94879.25
2019-01-03T07:40:21.916Z,94880.53
2019-01-03T07:43:10.660Z,94885.75
2019-01-03T07:46:12.489Z,94888.30
2019-01-03T07:49:14.969Z,94886.38
2019-01-03T07:52:07.931Z,94883.27
2019-01-03T07:55:04.158Z,94883.09
2019-01-03T07:57:57.356Z,94892.06
2019-01-03T08:00:53.539Z,94892.59
2019-01-03T08:03:55.790Z,94891.97
2019-01-03T08:06:45.126Z,94893.59
2019-01-03T08:09:50.456Z,94898.73
2019-01-03T08:12:55.449Z,94891.41
2019-01-03T08:15:45.675Z,94895.91
2019-01-03T08:18:26.083Z,94898.62
2019-01-03T08:21:22.061Z,94901.28
2019-01-03T08:24:12.311Z,94901.66
2019-01-03T08:27:02.385Z,94895.61
2019-01-03T08:30:04.601Z,94896.16
2019-01-03T08:32:51.537Z,94899.17
2019-01-03T08:36:01.528Z,94896.07
2019-01-03T08:38:52.403Z,94901.28
2019-01-03T08:41:41.620Z,94904.13
2019-01-03T08:44:43.868Z,94903.45
2019-01-03T08:47:32.690Z,94901.80
2019-01-03T08:50:28.878Z,94897.58
2019-01-03T08:53:19.273Z,94897.21
2019-01-03T08:56:27.512Z,94888.31
2019-01-03T08:59:23.637Z,94886.52
2019-01-03T09:02:13.732Z,94879.57
2019-01-03T09:05:04.060Z,94871.27
2019-01-03T09:08:01.608Z,94875.69
2019-01-03T09:10:51.852Z,94876.65
2019-01-03T09:13:33.679Z,94871.13
2019-01-03T09:16:29.477Z,94859.66
2019-01-03T09:19:20.591Z,94849.70
2019-01-03T09:22:16.846Z,94850.11
2019-01-03T09:25:05.550Z,94844.94
2019-01-03T09:27:54.510Z,94849.90
2019-01-03T09:30:45.536Z,94845.51
2019-01-03T09:33:34.328Z,94843.70
2019-01-03T09:36:22.756Z,94841.61
2019-01-03T09:39:11.653Z,94840.91
2019-01-03T09:42:11.512Z,94831.41
2019-01-03T09:44:46.101Z,94828.89
2019-01-03T09:47:17.528Z,94826.70
2019-01-03T09:49:49.135Z,94818.09
2019-01-03T09:52:20.478Z,94818.82
2019-01-03T09:54:51.998Z,94817.44
2019-01-03T09:57:23.193Z,94815.66
2019-01-03T09:59:54.528Z,94807.20
2019-01-03T10:02:25.972Z,94800.92
2019-01-03T10:04:57.095Z,94805.47
2019-01-03T10:07:28.540Z,94808.52
2019-01-03T10:10:00.018Z,94805.57
2019-01-03T10:12:31.501Z,94811.55
2019-01-03T10:15:03.034Z,94804.70
2019-01-03T10:17:34.367Z,94805.11
2019-01-03T10:20:06.412Z,94805.41
2019-01-03T10:22:38.408Z,94798.31
2019-01-03T10:25:09.715Z,94794.55
2019-01-03T10:27:41.218Z,94795.91
2019-01-03T10:30:12.907Z,94798.40
2019-01-03T10:32:44.661Z,94787.38
2019-01-03T10:35:16.647Z,94792.12
2019-01-03T10:37:48.190Z,94784.42
2019-01-03T10:40:19.733Z,94785.70
2019-01-03T10:42:51.400Z,94775.10
2019-01-03T10:45:22.821Z,94777.45
2019-01-03T10:47:54.180Z,94776.52
2019-01-03T10:50:25.447Z,94767.98
2019-01-03T10:52:56.814Z,94766.41
2019-01-03T10:55:28.165Z,94764.57
2019-01-03T10:57:59.718Z,94768.57
2019-01-03T11:00:31.060Z,94761.00
2019-01-03T11:03:02.649Z,94757.09
2019-01-03T11:05:34.068Z,94755.73
2019-01-03T11:08:05.565Z,94755.42
2019-01-03T11:10:36.991Z,94752.23
2019-01-03T11:13:08.290Z,94749.05
2019-01-03T11:15:39.499Z,94751.50
2019-01-03T11:18:10.772Z,94749.25
2019-01-03T11:20:42.059Z,94747.12
2019-01-03T11:23:13.332Z,94748.94
2019-01-03T11:25:44.530Z,94749.66
2019-01-03T11:28:15.712Z,94743.52
2019-01-03T11:30:47.197Z,94748.03
2019-01-03T11:33:18.325Z,94746.62
2019-01-03T11:35:49.718Z,94746.09
2019-01-03T11:38:20.888Z,94738.69
2019-01-03T11:40:52.174Z,94740.06
2019-01-03T11:43:23.633Z,94738.52
2019-01-03T11:45:55.183Z,94734.31
2019-01-03T11:48:26.290Z,94736.13
2019-01-03T11:50:57.655Z,94741.22
2019-01-03T11:53:28.844Z,94736.42
2019-01-03T11:56:00.011Z,94742.88
2019-01-03T11:58:31.646Z,94750.80
2019-01-03T12:01:03.133Z,94745.66
2019-01-03T12:03:34.546Z,94745.73
2019-01-03T12:06:05.883Z,94750.22
2019-01-03T12:08:36.951Z,94756.41
2019-01-03T12:11:08.247Z,94745.66
2019-01-03T12:13:39.621Z,94755.87
2019-01-03T12:16:10.900Z,94754.92
2019-01-03T12:18:42.378Z,94761.62
2019-01-03T12:21:13.834Z,94766.34
2019-01-03T12:23:44.936Z,94763.88
2019-01-03T12:26:16.195Z,94768.31
2019-01-03T12:28:47.587Z,94764.42
2019-01-03T12:31:19.094Z,94758.17
2019-01-03T12:33:50.337Z,94758.53
2019-01-03T12:36:21.795Z,94759.50
2019-01-03T12:38:53.200Z,94759.28
2019-01-03T12:41:24.649Z,94766.10
2019-01-03T12:43:55.792Z,94763.84
2019-01-03T12:46:26.967Z,94760.97
2019-01-03T12:48:58.080Z,94762.58
2019-01-03T12:51:29.448Z,94763.23
2019-01-03T12:54:00.587Z,94765.64
2019-01-03T12:56:32.045Z,94761.83
2019-01-03T12:59:03.390Z,94768.80
2019-01-03T13:01:34.720Z,94773.79
2019-01-03T13:04:06.360Z,94766.35
2019-01-03T13:06:37.694Z,94768.84
2019-01-03T13:09:17.731Z,94768.61
2019-01-03T13:11:49.567Z,94773.63
2019-01-03T13:14:20.878Z,94777.64
2019-01-03T13:16:52.410Z,94777.06
2019-01-03T13:19:23.885Z,94783.22
2019-01-03T13:21:55.363Z,94779.66
2019-01-03T13:24:26.697Z,94779.55
2019-01-03T13:26:58.108Z,94783.41
2019-01-03T13:29:29.570Z,94779.33
2019-01-03T13:32:01.217Z,94783.16
2019-01-03T13:34:32.598Z,94780.83
2019-01-03T13:37:04.155Z,94776.11
2019-01-03T13:39:35.640Z,94774.64
2019-01-03T13:42:06.953Z,94764.39
2019-01-03T13:44:38.247Z,94760.19
2019-01-03T13:47:09.656Z,94760.19
2019-01-03T13:49:41.245Z,94757.84
2019-01-03T13:52:12.807Z,94754.70
2019-01-03T13:54:46.301Z,94755.09
2019-01-03T13:57:17.735Z,94755.09
2019-01-03T13:59:49.114Z,94757.34
2019-01-03T14:02:20.582Z,94760.26
2019-01-03T14:04:52.063Z,94763.17
2019-01-03T14:07:23.456Z,94759.59
2019-01-03T14:09:54.973Z,94759.23
2019-01-03T14:12:26.525Z,94759.81
2019-01-03T14:14:58.105Z,94755.91
2019-01-03T14:17:29.647Z,94753.64
2019-01-03T14:20:01.051Z,94752.60
2019-01-03T14:22:32.565Z,94752.25
2019-01-03T14:25:04.169Z,94751.08
2019-01-03T14:27:35.776Z,94754.04
2019-01-03T14:30:07.847Z,94751.22
2019-01-03T14:32:39.184Z,94749.53
2019-01-03T14:35:10.524Z,94752.27
2019-01-03T14:37:41.817Z,94756.36
2019-01-03T14:40:12.994Z,94753.44
2019-01-03T14:42:44.245Z,94754.56
2019-01-03T14:45:15.598Z,94756.20
2019-01-03T14:47:47.111Z,94760.67
2019-01-03T14:50:18.300Z,94758.22
2019-01-03T14:52:49.430Z,94761.73
2019-01-03T14:55:20.647Z,94774.69
2019-01-03T14:57:51.931Z,94780.70
2019-01-03T15:00:23.590Z,94777.38
2019-01-03T15:02:55.177Z,94778.35
2019-01-03T15:05:26.529Z,94776.73
2019-01-03T15:07:58.210Z,94775.25
2019-01-03T15:10:29.435Z,94778.95
2019-01-03T15:13:00.546Z,94785.48
2019-01-03T15:15:31.902Z,94790.95
2019-01-03T15:18:03.251Z,94792.92
2019-01-03T15:20:34.483Z,94791.75
2019-01-03T15:23:05.992Z,94798.00
2019-01-03T15:25:37.236Z,94796.20
2019-01-03T15:28:08.711Z,94796.30
2019-01-03T15:30:39.898Z,94797.25
2019-01-03T15:33:11.339Z,94795.50
2019-01-03T15:35:42.786Z,94799.25
2019-01-03T15:38:14.124Z,94801.00
2019-01-03T15:40:45.337Z,94800.91
2019-01-03T15:43:16.576Z,94810.34
2019-01-03T15:45:47.716Z,94812.09
2019-01-03T15:48:19.157Z,94812.81
2019-01-03T15:50:50.466Z,94806.97
2019-01-03T15:53:21.619Z,94807.30
2019-01-03T15:55:52.992Z,94810.05
2019-01-03T15:58:24.425Z,94808.13
2019-01-03T16:00:55.574Z,94804.08
2019-01-03T16:03:26.951Z,94813.08
2019-01-03T16:05:58.172Z,94808.58
2019-01-03T16:08:29.877Z,94803.06
2019-01-03T16:11:01.009Z,94801.42
2019-01-03T16:13:32.135Z,94806.90
2019-01-03T16:16:03.235Z,94816.73
2019-01-03T16:18:34.648Z,94818.87
2019-01-03T16:21:06.036Z,94817.95
2019-01-03T16:23:37.513Z,94819.70
2019-01-03T16:26:08.950Z,94824.61
2019-01-03T16:28:40.141Z,94822.96
2019-01-03T16:31:11.392Z,94828.69
2019-01-03T16:33:42.626Z,94827.91
2019-01-03T16:36:14.049Z,94831.23
2019-01-03T16:38:45.403Z,94837.78
2019-01-03T16:41:16.609Z,94845.75
2019-01-03T16:43:48.097Z,94856.14
2019-01-03T16:46:19.371Z,94856.59
2019-01-03T16:48:50.490Z,94859.86
2019-01-03T16:51:22.030Z,94859.95
2019-01-03T16:53:53.473Z,94860.91
2019-01-03T16:56:24.642Z,94856.63
2019-01-03T16:58:56.211Z,94854.52
2019-01-03T17:01:27.594Z,94859.86
2019-01-03T17:03:58.918Z,94860.83
2019-01-03T17:06:30.309Z,94856.27
2019-01-03T17:09:01.837Z,94866.82
2019-01-03T17:11:34.870Z,94877.63
2019-01-03T17:14:06.428Z,94877.44
2019-01-03T17:16:37.491Z,94876.06
2019-01-03T17:19:09.016Z,94873.34
2019-01-03T17:21:40.154Z,94871.73
2019-01-03T17:24:11.449Z,94875.23
2019-01-03T17:26:42.766Z,94873.69
2019-01-03T17:29:14.115Z,94876.03
2019-01-03T17:31:45.634Z,94875.91
2019-01-03T17:34:17.177Z,94875.91
2019-01-03T17:36:48.413Z,94888.56
2019-01-03T17:39:19.674Z,94890.03
2019-01-03T17:41:51.040Z,94892.00
2019-01-03T17:44:22.406Z,94891.82
2019-01-03T17:46:53.605Z,94894.55
2019-01-03T17:49:24.989Z,94899.41
2019-01-03T17:51:56.316Z,94894.23
2019-01-03T17:54:27.838Z,94896.05
2019-01-03T17:56:59.303Z,94905.83
2019-01-03T17:59:30.765Z,94898.86
2019-01-03T18:02:02.216Z,94901.05
2019-01-03T18:04:33.603Z,94909.02
2019-01-03T18:07:05.024Z,94915.41
2019-01-03T18:09:36.341Z,94916.91
2019-01-03T18:12:07.612Z,94908.71
2019-01-03T18:14:38.999Z,94913.95
2019-01-03T18:17:10.326Z,94910.71
2019-01-03T18:19:41.918Z,94906.15
2019-01-03T18:22:12.998Z,94908.07
2019-01-03T18:24:44.404Z,94902.51
2019-01-03T18:27:15.707Z,94896.84
2019-01-03T18:29:46.885Z,94910.88
2019-01-03T18:32:18.106Z,94909.62
2019-01-03T18:34:49.557Z,94907.06
2019-01-03T18:37:20.690Z,94914.91
2019-01-03T18:39:52.146Z,94912.54
2019-01-03T18:42:23.308Z,94916.73
2019-01-03T18:44:54.783Z,94917.28
2019-01-03T18:47:26.063Z,94913.62
2019-01-03T18:49:57.488Z,94911.50
2019-01-03T18:52:29.062Z,94913.85
2019-01-03T18:55:00.521Z,94923.57
2019-01-03T18:57:31.882Z,94921.92
2019-01-03T19:00:03.498Z,94920.57
2019-01-03T19:02:36.375Z,94923.71
2019-01-03T19:05:07.991Z,94925.39
2019-01-03T19:07:39.309Z,94920.97
2019-01-03T19:10:11.381Z,94933.20
2019-01-03T19:12:42.759Z,94937.25
2019-01-03T19:15:14.331Z,94930.33
2019-01-03T19:17:45.602Z,94932.28
2019-01-03T19:20:16.993Z,94928.36
2019-01-03T19:22:48.432Z,94936.43
2019-01-03T19:25:21.429Z,94937.84
2019-01-03T19:27:53.015Z,94939.70
2019-01-03T19:30:24.473Z,94938.63
2019-01-03T19:32:55.967Z,94939.45
2019-01-03T19:35:27.148Z,94943.14
2019-01-03T19:37:58.494Z,94941.66
2019-01-03T19:40:29.854Z,94944.42
2019-01-03T19:43:02.049Z,94940.54
2019-01-03T19:45:33.376Z,94948.02
2019-01-03T19:48:04.655Z,94943.82
2019-01-03T19:50:37.042Z,94943.91
2019-01-03T19:53:08.397Z,94942.03
2019-01-03T19:55:39.671Z,94935.80
2019-01-03T19:58:11.229Z,94949.16
2019-01-03T20:00:42.551Z,94942.88
2019-01-03T20:03:13.896Z,94940.36
2019-01-03T20:05:45.471Z,94949.80
2019-01-03T20:08:17.207Z,94940.05
2019-01-03T20:10:48.605Z,94937.44
2019-01-03T20:13:20.079Z,94943.88
2019-01-03T20:15:51.649Z,94945.23
2019-01-03T20:18:22.867Z,94947.47
2019-01-03T20:20:54.396Z,94943.27
2019-01-03T20:23:25.907Z,94942.88
2019-01-03T20:25:57.100Z,94946.52
2019-01-03T20:28:28.450Z,94943.82
2019-01-03T20:30:59.635Z,94943.00
2019-01-03T20:33:31.183Z,94949.44
2019-01-03T20:36:02.419Z,94951.45
2019-01-03T20:38:33.694Z,94947.79
2019-01-03T20:41:05.086Z,94949.38
2019-01-03T20:43:39.223Z,94956.05
2019-01-03T20:46:09.217Z,94957.23
2019-01-03T20:48:40.609Z,94955.64
2019-01-03T20:51:11.994Z,94956.78
2019-01-03T20:53:43.158Z,94959.88
2019-01-03T20:56:14.904Z,94959.66
2019-01-03T20:58:46.295Z,94961.38
2019-01-03T21:01:17.762Z,94972.08
2019-01-03T21:03:48.903Z,94961.05
2019-01-03T21:06:20.056Z,94963.14
2019-01-03T21:08:51.236Z,94959.77
2019-01-03T21:11:22.436Z,94960.88
2019-01-03T21:13:53.772Z,94959.31
2019-01-03T21:16:25.181Z,94964.34
2019-01-03T21:18:56.317Z,94965.56
2019-01-03T21:21:27.595Z,94960.31
2019-01-03T21:23:59.011Z,94962.64
2019-01-03T21:26:30.142Z,94957.22
2019-01-03T21:29:01.227Z,94963.23
2019-01-03T21:31:32.695Z,94961.79
2019-01-03T21:34:04.066Z,94965.25
2019-01-03T21:36:35.738Z,94970.28
2019-01-03T21:39:07.468Z,94969.91
2019-01-03T21:41:39.229Z,94974.80
2019-01-03T21:44:10.522Z,94960.61
2019-01-03T21:46:41.971Z,94958.28
2019-01-03T21:49:13.140Z,94964.42
2019-01-03T21:51:44.543Z,94966.98
2019-01-03T21:54:18.761Z,94964.42
2019-01-03T21:56:48.683Z,94962.91
2019-01-03T21:59:20.091Z,94974.72
2019-01-03T22:01:51.513Z,94970.13
2019-01-03T22:04:22.863Z,94982.22
2019-01-03T22:06:54.344Z,94975.67
2019-01-03T22:09:25.810Z,94988.98
2019-01-03T22:11:56.919Z,94986.94
2019-01-03T22:14:28.220Z,94993.84
2019-01-03T22:16:59.612Z,95000.81
2019-01-03T22:19:30.796Z,94999.03
2019-01-03T22:22:02.165Z,95004.29
2019-01-03T22:24:33.287Z,95009.58
2019-01-03T22:27:04.694Z,95012.29
2019-01-03T22:29:35.846Z,95017.92
2019-01-03T22:32:07.328Z,95010.86
2019-01-03T22:34:39.406Z,95014.17
2019-01-03T22:37:10.653Z,95016.14
2019-01-03T22:39:42.076Z,95018.83
2019-01-03T22:42:13.444Z,95022.97
2019-01-03T22:44:44.552Z,95028.69
2019-01-03T22:47:15.688Z,95021.99
2019-01-03T22:49:46.817Z,95027.67
2019-01-03T22:52:18.154Z,95025.34
2019-01-03T22:54:49.523Z,95026.08
2019-01-03T22:57:21.143Z,95029.45
2019-01-03T22:59:52.327Z,95029.24
2019-01-03T23:02:23.767Z,95035.30
2019-01-03T23:04:54.890Z,95029.11
2019-01-03T23:07:26.329Z,95033.73
2019-01-03T23:09:57.705Z,95030.97
2019-01-03T23:12:29.101Z,95030.19
2019-01-03T23:15:00.452Z,95031.63
2019-01-03T23:17:31.519Z,95033.47
2019-01-03T23:20:02.708Z,95040.06
2019-01-03T23:22:34.249Z,95038.83
2019-01-03T23:25:05.558Z,95034.84
2019-01-03T23:27:36.923Z,95038.25
2019-01-03T23:30:08.878Z,95037.34
2019-01-03T23:32:40.344Z,95038.09
2019-01-03T23:35:11.778Z,95039.28
2019-01-03T23:37:42.957Z,95036.94
2019-01-03T23:40:14.383Z,95038.34
2019-01-03T23:42:45.906Z,95047.34
2019-01-03T23:45:19.010Z,95049.98
2019-01-03T23:47:52.293Z,95051.13
2019-01-03T23:50:26.524Z,95054.59
2019-01-03T23:52:57.821Z,95057.88
2019-01-03T23:55:33.410Z,95062.69
2019-01-03T23:58:04.784Z,95058.88
